sensor_id;sensor_type;location;lat;lon;timestamp;P1;durP1;ratioP1;P2;durP2;ratioP2
41739;SDS011;27422;52.444;13.300;2023-10-09T00:01:39;4.28;;;2.03;;
41739;SDS011;27422;52.444;13.300;2023-10-09T00:04:09;5.53;;;1.77;;
41739;SDS011;27422;52.444;13.300;2023-10-09T00:06:36;4.05;;;2.38;;
41739;SDS011;27422;52.444;13.300;2023-10-09T00:09:05;3.85;;;1.92;;
41739;SDS011;27422;52.444;13.300;2023-10-09T00:11:55;4.82;;;1.65;;
41739;SDS011;27422;52.444;13.300;2023-10-09T00:14:29;8.88;;;2.33;;
41739;SDS011;27422;52.444;13.300;2023-10-09T00:16:57;5.53;;;2.00;;
41739;SDS011;27422;52.444;13.300;2023-10-09T00:19:37;4.18;;;2.00;;
41739;SDS011;27422;52.444;13.300;2023-10-09T00:22:03;3.97;;;2.10;;
41739;SDS011;27422;52.444;13.300;2023-10-09T00:24:32;6.43;;;2.05;;
41739;SDS011;27422;52.444;13.300;2023-10-09T00:26:58;5.68;;;2.25;;
41739;SDS011;27422;52.444;13.300;2023-10-09T00:29:37;8.13;;;2.45;;
41739;SDS011;27422;52.444;13.300;2023-10-09T00:32:09;4.93;;;2.53;;
41739;SDS011;27422;52.444;13.300;2023-10-09T00:34:48;5.70;;;2.33;;
41739;SDS011;27422;52.444;13.300;2023-10-09T00:39:59;4.03;;;2.00;;
41739;SDS011;27422;52.444;13.300;2023-10-09T00:42:24;5.22;;;2.35;;
41739;SDS011;27422;52.444;13.300;2023-10-09T00:44:59;4.90;;;2.20;;
41739;SDS011;27422;52.444;13.300;2023-10-09T00:47:28;5.22;;;2.38;;
41739;SDS011;27422;52.444;13.300;2023-10-09T00:50:00;4.63;;;2.30;;
41739;SDS011;27422;52.444;13.300;2023-10-09T00:52:45;5.75;;;2.60;;
41739;SDS011;27422;52.444;13.300;2023-10-09T00:55:17;5.03;;;2.40;;
41739;SDS011;27422;52.444;13.300;2023-10-09T00:57:51;5.13;;;2.33;;
41739;SDS011;27422;52.444;13.300;2023-10-09T01:00:25;7.53;;;2.58;;
41739;SDS011;27422;52.444;13.300;2023-10-09T01:02:57;5.90;;;2.42;;
41739;SDS011;27422;52.444;13.300;2023-10-09T01:05:44;5.07;;;2.10;;
41739;SDS011;27422;52.444;13.300;2023-10-09T01:08:22;5.72;;;2.28;;
41739;SDS011;27422;52.444;13.300;2023-10-09T01:10:54;4.68;;;2.30;;
41739;SDS011;27422;52.444;13.300;2023-10-09T01:13:25;8.00;;;2.83;;
41739;SDS011;27422;52.444;13.300;2023-10-09T01:16:04;4.65;;;2.20;;
41739;SDS011;27422;52.444;13.300;2023-10-09T01:18:30;5.43;;;2.40;;
41739;SDS011;27422;52.444;13.300;2023-10-09T01:21:01;7.20;;;2.50;;
41739;SDS011;27422;52.444;13.300;2023-10-09T01:23:27;5.28;;;2.70;;
41739;SDS011;27422;52.444;13.300;2023-10-09T01:25:54;4.80;;;2.43;;
41739;SDS011;27422;52.444;13.300;2023-10-09T01:28:20;5.32;;;2.20;;
41739;SDS011;27422;52.444;13.300;2023-10-09T01:30:46;5.05;;;2.40;;
41739;SDS011;27422;52.444;13.300;2023-10-09T01:33:12;4.60;;;2.42;;
41739;SDS011;27422;52.444;13.300;2023-10-09T01:35:52;6.05;;;2.40;;
41739;SDS011;27422;52.444;13.300;2023-10-09T01:38:24;4.63;;;2.30;;
41739;SDS011;27422;52.444;13.300;2023-10-09T01:41:06;4.60;;;2.65;;
41739;SDS011;27422;52.444;13.300;2023-10-09T01:43:44;6.43;;;2.80;;
41739;SDS011;27422;52.444;13.300;2023-10-09T01:46:11;4.55;;;2.38;;
41739;SDS011;27422;52.444;13.300;2023-10-09T01:48:36;5.35;;;2.60;;
41739;SDS011;27422;52.444;13.300;2023-10-09T01:51:05;6.80;;;2.58;;
41739;SDS011;27422;52.444;13.300;2023-10-09T01:53:31;6.30;;;3.08;;
41739;SDS011;27422;52.444;13.300;2023-10-09T01:56:07;4.87;;;2.50;;
41739;SDS011;27422;52.444;13.300;2023-10-09T01:58:42;5.40;;;2.70;;
41739;SDS011;27422;52.444;13.300;2023-10-09T02:01:12;7.75;;;2.80;;
41739;SDS011;27422;52.444;13.300;2023-10-09T02:03:39;7.07;;;2.72;;
41739;SDS011;27422;52.444;13.300;2023-10-09T02:06:07;5.32;;;2.60;;
41739;SDS011;27422;52.444;13.300;2023-10-09T02:08:53;5.72;;;2.75;;
41739;SDS011;27422;52.444;13.300;2023-10-09T02:11:19;5.95;;;2.70;;
41739;SDS011;27422;52.444;13.300;2023-10-09T02:14:03;6.63;;;3.15;;
41739;SDS011;27422;52.444;13.300;2023-10-09T02:16:40;7.35;;;2.92;;
41739;SDS011;27422;52.444;13.300;2023-10-09T02:19:07;6.18;;;3.15;;
41739;SDS011;27422;52.444;13.300;2023-10-09T02:21:54;7.15;;;3.05;;
41739;SDS011;27422;52.444;13.300;2023-10-09T02:24:21;5.13;;;3.05;;
41739;SDS011;27422;52.444;13.300;2023-10-09T02:27:06;7.13;;;2.70;;
41739;SDS011;27422;52.444;13.300;2023-10-09T02:29:31;6.95;;;2.80;;
41739;SDS011;27422;52.444;13.300;2023-10-09T02:32:00;7.97;;;3.13;;
41739;SDS011;27422;52.444;13.300;2023-10-09T02:34:38;5.40;;;2.90;;
41739;SDS011;27422;52.444;13.300;2023-10-09T02:37:03;6.63;;;3.00;;
41739;SDS011;27422;52.444;13.300;2023-10-09T02:39:37;8.35;;;3.00;;
41739;SDS011;27422;52.444;13.300;2023-10-09T02:42:27;6.38;;;3.05;;
41739;SDS011;27422;52.444;13.300;2023-10-09T02:44:53;7.70;;;3.17;;
41739;SDS011;27422;52.444;13.300;2023-10-09T02:47:20;6.95;;;3.58;;
41739;SDS011;27422;52.444;13.300;2023-10-09T02:49:49;8.25;;;3.53;;
41739;SDS011;27422;52.444;13.300;2023-10-09T02:52:15;6.22;;;3.60;;
41739;SDS011;27422;52.444;13.300;2023-10-09T02:54:47;5.50;;;3.55;;
41739;SDS011;27422;52.444;13.300;2023-10-09T02:57:12;9.15;;;3.45;;
41739;SDS011;27422;52.444;13.300;2023-10-09T02:59:49;5.90;;;3.38;;
41739;SDS011;27422;52.444;13.300;2023-10-09T03:02:17;10.18;;;3.72;;
41739;SDS011;27422;52.444;13.300;2023-10-09T03:04:43;7.63;;;3.60;;
41739;SDS011;27422;52.444;13.300;2023-10-09T03:07:09;8.15;;;3.72;;
41739;SDS011;27422;52.444;13.300;2023-10-09T03:09:35;8.13;;;3.97;;
41739;SDS011;27422;52.444;13.300;2023-10-09T03:12:01;9.23;;;4.18;;
41739;SDS011;27422;52.444;13.300;2023-10-09T03:14:28;9.93;;;4.13;;
41739;SDS011;27422;52.444;13.300;2023-10-09T03:19:31;9.35;;;4.57;;
41739;SDS011;27422;52.444;13.300;2023-10-09T03:22:03;10.27;;;4.93;;
41739;SDS011;27422;52.444;13.300;2023-10-09T03:24:30;7.70;;;4.32;;
41739;SDS011;27422;52.444;13.300;2023-10-09T03:26:58;9.00;;;4.90;;
41739;SDS011;27422;52.444;13.300;2023-10-09T03:29:24;9.27;;;4.65;;
41739;SDS011;27422;52.444;13.300;2023-10-09T03:31:49;8.82;;;4.30;;
41739;SDS011;27422;52.444;13.300;2023-10-09T03:34:20;9.27;;;5.10;;
41739;SDS011;27422;52.444;13.300;2023-10-09T03:36:46;8.82;;;4.18;;
41739;SDS011;27422;52.444;13.300;2023-10-09T03:39:13;8.13;;;4.40;;
41739;SDS011;27422;52.444;13.300;2023-10-09T03:41:57;10.52;;;4.80;;
41739;SDS011;27422;52.444;13.300;2023-10-09T03:44:24;11.98;;;5.00;;
41739;SDS011;27422;52.444;13.300;2023-10-09T03:46:53;12.05;;;4.90;;
41739;SDS011;27422;52.444;13.300;2023-10-09T03:49:18;9.45;;;4.47;;
41739;SDS011;27422;52.444;13.300;2023-10-09T03:51:50;11.55;;;5.00;;
41739;SDS011;27422;52.444;13.300;2023-10-09T03:54:16;9.55;;;5.43;;
41739;SDS011;27422;52.444;13.300;2023-10-09T03:56:45;10.50;;;5.18;;
41739;SDS011;27422;52.444;13.300;2023-10-09T03:59:15;9.15;;;5.25;;
41739;SDS011;27422;52.444;13.300;2023-10-09T04:01:47;12.60;;;5.85;;
41739;SDS011;27422;52.444;13.300;2023-10-09T04:04:18;10.95;;;5.70;;
41739;SDS011;27422;52.444;13.300;2023-10-09T04:06:48;12.00;;;5.57;;
41739;SDS011;27422;52.444;13.300;2023-10-09T04:09:14;11.40;;;5.53;;
41739;SDS011;27422;52.444;13.300;2023-10-09T04:11:46;8.07;;;4.70;;
41739;SDS011;27422;52.444;13.300;2023-10-09T04:14:12;10.75;;;5.28;;
41739;SDS011;27422;52.444;13.300;2023-10-09T04:17:07;8.20;;;5.13;;
41739;SDS011;27422;52.444;13.300;2023-10-09T04:19:48;9.05;;;4.30;;
41739;SDS011;27422;52.444;13.300;2023-10-09T04:22:24;8.23;;;4.63;;
41739;SDS011;27422;52.444;13.300;2023-10-09T04:24:56;7.40;;;4.50;;
41739;SDS011;27422;52.444;13.300;2023-10-09T04:27:22;9.52;;;4.53;;
41739;SDS011;27422;52.444;13.300;2023-10-09T04:29:54;9.13;;;5.28;;
41739;SDS011;27422;52.444;13.300;2023-10-09T04:32:19;7.18;;;4.05;;
41739;SDS011;27422;52.444;13.300;2023-10-09T04:34:49;9.52;;;4.70;;
41739;SDS011;27422;52.444;13.300;2023-10-09T04:37:21;9.50;;;4.60;;
41739;SDS011;27422;52.444;13.300;2023-10-09T04:40:13;9.57;;;5.03;;
41739;SDS011;27422;52.444;13.300;2023-10-09T04:43:01;9.73;;;4.70;;
41739;SDS011;27422;52.444;13.300;2023-10-09T04:45:31;8.00;;;4.13;;
41739;SDS011;27422;52.444;13.300;2023-10-09T04:48:09;7.95;;;4.70;;
41739;SDS011;27422;52.444;13.300;2023-10-09T04:50:35;8.45;;;4.75;;
41739;SDS011;27422;52.444;13.300;2023-10-09T04:53:01;9.30;;;4.40;;
41739;SDS011;27422;52.444;13.300;2023-10-09T04:55:50;8.73;;;4.40;;
41739;SDS011;27422;52.444;13.300;2023-10-09T04:58:23;9.77;;;4.93;;
41739;SDS011;27422;52.444;13.300;2023-10-09T05:00:52;9.55;;;5.38;;
41739;SDS011;27422;52.444;13.300;2023-10-09T05:03:24;8.50;;;4.70;;
41739;SDS011;27422;52.444;13.300;2023-10-09T05:05:53;7.03;;;4.45;;
41739;SDS011;27422;52.444;13.300;2023-10-09T05:08:24;8.93;;;4.78;;
41739;SDS011;27422;52.444;13.300;2023-10-09T05:13:26;8.75;;;4.35;;
41739;SDS011;27422;52.444;13.300;2023-10-09T05:18:50;9.90;;;4.68;;
41739;SDS011;27422;52.444;13.300;2023-10-09T05:21:37;10.00;;;5.45;;
41739;SDS011;27422;52.444;13.300;2023-10-09T05:24:07;8.60;;;5.25;;
41739;SDS011;27422;52.444;13.300;2023-10-09T05:26:39;7.80;;;4.78;;
41739;SDS011;27422;52.444;13.300;2023-10-09T05:29:14;17.00;;;10.65;;
41739;SDS011;27422;52.444;13.300;2023-10-09T05:31:50;39.95;;;22.17;;
41739;SDS011;27422;52.444;13.300;2023-10-09T05:34:25;30.48;;;14.40;;
41739;SDS011;27422;52.444;13.300;2023-10-09T05:37:06;11.85;;;6.47;;
41739;SDS011;27422;52.444;13.300;2023-10-09T05:39:53;9.70;;;5.40;;
41739;SDS011;27422;52.444;13.300;2023-10-09T05:42:31;11.82;;;5.70;;
41739;SDS011;27422;52.444;13.300;2023-10-09T05:47:44;8.70;;;5.10;;
41739;SDS011;27422;52.444;13.300;2023-10-09T05:50:22;10.90;;;5.40;;
41739;SDS011;27422;52.444;13.300;2023-10-09T05:52:52;32.42;;;16.90;;
41739;SDS011;27422;52.444;13.300;2023-10-09T05:55:24;13.95;;;8.55;;
41739;SDS011;27422;52.444;13.300;2023-10-09T05:57:50;10.15;;;5.60;;
41739;SDS011;27422;52.444;13.300;2023-10-09T06:00:34;8.40;;;5.00;;
41739;SDS011;27422;52.444;13.300;2023-10-09T06:03:18;9.40;;;4.50;;
41739;SDS011;27422;52.444;13.300;2023-10-09T06:05:44;11.18;;;5.55;;
41739;SDS011;27422;52.444;13.300;2023-10-09T06:08:16;17.25;;;8.50;;
41739;SDS011;27422;52.444;13.300;2023-10-09T06:10:49;13.98;;;8.32;;
41739;SDS011;27422;52.444;13.300;2023-10-09T06:13:30;10.63;;;6.60;;
41739;SDS011;27422;52.444;13.300;2023-10-09T06:16:12;7.15;;;4.68;;
41739;SDS011;27422;52.444;13.300;2023-10-09T06:18:56;10.70;;;5.53;;
41739;SDS011;27422;52.444;13.300;2023-10-09T06:21:40;9.00;;;5.22;;
41739;SDS011;27422;52.444;13.300;2023-10-09T06:24:17;11.15;;;5.10;;
41739;SDS011;27422;52.444;13.300;2023-10-09T06:26:44;9.38;;;5.25;;
41739;SDS011;27422;52.444;13.300;2023-10-09T06:29:37;8.23;;;4.60;;
41739;SDS011;27422;52.444;13.300;2023-10-09T06:32:15;8.75;;;5.05;;
41739;SDS011;27422;52.444;13.300;2023-10-09T06:34:51;8.55;;;5.32;;
41739;SDS011;27422;52.444;13.300;2023-10-09T06:37:25;10.50;;;5.65;;
41739;SDS011;27422;52.444;13.300;2023-10-09T06:42:22;8.40;;;5.00;;
41739;SDS011;27422;52.444;13.300;2023-10-09T06:45:11;7.25;;;4.82;;
41739;SDS011;27422;52.444;13.300;2023-10-09T06:47:47;7.85;;;4.90;;
41739;SDS011;27422;52.444;13.300;2023-10-09T06:50:33;8.85;;;4.97;;
41739;SDS011;27422;52.444;13.300;2023-10-09T06:53:18;46.70;;;23.85;;
41739;SDS011;27422;52.444;13.300;2023-10-09T06:55:50;10.88;;;7.28;;
41739;SDS011;27422;52.444;13.300;2023-10-09T06:58:30;9.85;;;5.57;;
41739;SDS011;27422;52.444;13.300;2023-10-09T07:01:06;10.88;;;5.38;;
41739;SDS011;27422;52.444;13.300;2023-10-09T07:03:51;8.68;;;5.20;;
41739;SDS011;27422;52.444;13.300;2023-10-09T07:06:19;8.60;;;5.35;;
41739;SDS011;27422;52.444;13.300;2023-10-09T07:09:00;9.13;;;5.10;;
41739;SDS011;27422;52.444;13.300;2023-10-09T07:11:32;9.35;;;5.25;;
41739;SDS011;27422;52.444;13.300;2023-10-09T07:14:19;8.27;;;5.10;;
41739;SDS011;27422;52.444;13.300;2023-10-09T07:20:02;7.20;;;4.38;;
41739;SDS011;27422;52.444;13.300;2023-10-09T07:23:00;7.38;;;4.45;;
41739;SDS011;27422;52.444;13.300;2023-10-09T07:25:39;8.07;;;4.38;;
41739;SDS011;27422;52.444;13.300;2023-10-09T07:28:20;6.40;;;4.00;;
41739;SDS011;27422;52.444;13.300;2023-10-09T07:31:15;10.73;;;4.70;;
41739;SDS011;27422;52.444;13.300;2023-10-09T07:33:49;9.65;;;4.55;;
41739;SDS011;27422;52.444;13.300;2023-10-09T07:36:24;7.63;;;4.38;;
41739;SDS011;27422;52.444;13.300;2023-10-09T07:39:03;7.88;;;4.07;;
41739;SDS011;27422;52.444;13.300;2023-10-09T07:41:38;8.25;;;4.32;;
41739;SDS011;27422;52.444;13.300;2023-10-09T07:44:13;8.55;;;4.32;;
41739;SDS011;27422;52.444;13.300;2023-10-09T07:46:44;7.13;;;4.05;;
41739;SDS011;27422;52.444;13.300;2023-10-09T07:49:33;9.48;;;4.38;;
41739;SDS011;27422;52.444;13.300;2023-10-09T07:52:02;9.85;;;4.35;;
41739;SDS011;27422;52.444;13.300;2023-10-09T07:54:28;8.15;;;4.72;;
41739;SDS011;27422;52.444;13.300;2023-10-09T07:57:01;7.75;;;4.45;;
41739;SDS011;27422;52.444;13.300;2023-10-09T07:59:41;9.77;;;4.63;;
41739;SDS011;27422;52.444;13.300;2023-10-09T08:02:20;12.70;;;6.90;;
41739;SDS011;27422;52.444;13.300;2023-10-09T08:04:56;8.35;;;4.05;;
41739;SDS011;27422;52.444;13.300;2023-10-09T08:07:48;6.40;;;3.70;;
41739;SDS011;27422;52.444;13.300;2023-10-09T08:10:22;6.28;;;3.80;;
41739;SDS011;27422;52.444;13.300;2023-10-09T08:12:47;10.35;;;4.22;;
41739;SDS011;27422;52.444;13.300;2023-10-09T08:15:16;8.95;;;4.07;;
41739;SDS011;27422;52.444;13.300;2023-10-09T08:17:48;7.70;;;3.80;;
41739;SDS011;27422;52.444;13.300;2023-10-09T08:20:20;5.78;;;3.80;;
41739;SDS011;27422;52.444;13.300;2023-10-09T08:22:50;9.70;;;5.43;;
41739;SDS011;27422;52.444;13.300;2023-10-09T08:25:17;9.13;;;5.05;;
41739;SDS011;27422;52.444;13.300;2023-10-09T08:27:56;7.03;;;4.00;;
41739;SDS011;27422;52.444;13.300;2023-10-09T08:30:40;6.53;;;3.40;;
41739;SDS011;27422;52.444;13.300;2023-10-09T08:33:14;6.45;;;3.28;;
41739;SDS011;27422;52.444;13.300;2023-10-09T08:36:00;6.32;;;3.53;;
41739;SDS011;27422;52.444;13.300;2023-10-09T08:38:32;7.32;;;3.70;;
41739;SDS011;27422;52.444;13.300;2023-10-09T08:41:12;6.80;;;3.38;;
41739;SDS011;27422;52.444;13.300;2023-10-09T08:43:47;7.32;;;3.78;;
41739;SDS011;27422;52.444;13.300;2023-10-09T08:46:18;6.22;;;3.50;;
41739;SDS011;27422;52.444;13.300;2023-10-09T08:48:45;6.75;;;3.80;;
41739;SDS011;27422;52.444;13.300;2023-10-09T08:51:11;8.82;;;3.80;;
41739;SDS011;27422;52.444;13.300;2023-10-09T08:53:36;7.60;;;4.47;;
41739;SDS011;27422;52.444;13.300;2023-10-09T08:56:07;13.30;;;7.47;;
41739;SDS011;27422;52.444;13.300;2023-10-09T08:58:51;6.40;;;3.30;;
41739;SDS011;27422;52.444;13.300;2023-10-09T09:01:18;7.43;;;4.10;;
41739;SDS011;27422;52.444;13.300;2023-10-09T09:03:47;6.70;;;3.63;;
41739;SDS011;27422;52.444;13.300;2023-10-09T09:06:13;5.95;;;3.55;;
41739;SDS011;27422;52.444;13.300;2023-10-09T09:08:39;7.43;;;3.88;;
41739;SDS011;27422;52.444;13.300;2023-10-09T09:16:24;7.97;;;3.58;;
41739;SDS011;27422;52.444;13.300;2023-10-09T09:19:00;9.80;;;4.35;;
41739;SDS011;27422;52.444;13.300;2023-10-09T09:21:36;8.07;;;3.80;;
41739;SDS011;27422;52.444;13.300;2023-10-09T09:24:06;7.78;;;3.95;;
41739;SDS011;27422;52.444;13.300;2023-10-09T09:26:42;6.43;;;3.47;;
41739;SDS011;27422;52.444;13.300;2023-10-09T09:29:14;8.02;;;4.55;;
41739;SDS011;27422;52.444;13.300;2023-10-09T09:31:53;6.88;;;3.75;;
41739;SDS011;27422;52.444;13.300;2023-10-09T09:34:19;6.50;;;3.75;;
41739;SDS011;27422;52.444;13.300;2023-10-09T09:36:53;8.48;;;3.88;;
41739;SDS011;27422;52.444;13.300;2023-10-09T09:39:24;8.15;;;3.75;;
41739;SDS011;27422;52.444;13.300;2023-10-09T09:41:55;8.45;;;4.22;;
41739;SDS011;27422;52.444;13.300;2023-10-09T09:47:08;8.70;;;4.00;;
41739;SDS011;27422;52.444;13.300;2023-10-09T09:49:37;5.78;;;3.80;;
41739;SDS011;27422;52.444;13.300;2023-10-09T09:52:06;8.48;;;4.07;;
41739;SDS011;27422;52.444;13.300;2023-10-09T09:54:35;8.60;;;4.47;;
41739;SDS011;27422;52.444;13.300;2023-10-09T09:57:03;10.50;;;5.93;;
41739;SDS011;27422;52.444;13.300;2023-10-09T09:59:33;11.15;;;5.70;;
41739;SDS011;27422;52.444;13.300;2023-10-09T10:02:05;7.88;;;5.00;;
41739;SDS011;27422;52.444;13.300;2023-10-09T10:07:00;7.00;;;4.22;;
41739;SDS011;27422;52.444;13.300;2023-10-09T10:09:37;7.47;;;4.75;;
41739;SDS011;27422;52.444;13.300;2023-10-09T10:15:22;7.07;;;4.95;;
41739;SDS011;27422;52.444;13.300;2023-10-09T10:20:28;8.65;;;5.22;;
41739;SDS011;27422;52.444;13.300;2023-10-09T10:25:46;8.80;;;5.72;;
41739;SDS011;27422;52.444;13.300;2023-10-09T10:31:04;10.07;;;6.47;;
41739;SDS011;27422;52.444;13.300;2023-10-09T10:36:21;10.63;;;6.43;;
41739;SDS011;27422;52.444;13.300;2023-10-09T10:41:53;9.27;;;6.40;;
41739;SDS011;27422;52.444;13.300;2023-10-09T10:44:29;11.45;;;6.80;;
41739;SDS011;27422;52.444;13.300;2023-10-09T10:47:01;8.85;;;5.80;;
41739;SDS011;27422;52.444;13.300;2023-10-09T10:49:28;8.73;;;6.18;;
41739;SDS011;27422;52.444;13.300;2023-10-09T10:52:04;11.00;;;6.22;;
41739;SDS011;27422;52.444;13.300;2023-10-09T10:54:44;8.73;;;5.93;;
41739;SDS011;27422;52.444;13.300;2023-10-09T10:57:16;9.93;;;6.10;;
41739;SDS011;27422;52.444;13.300;2023-10-09T10:59:53;8.10;;;5.85;;
41739;SDS011;27422;52.444;13.300;2023-10-09T11:02:44;8.80;;;6.30;;
41739;SDS011;27422;52.444;13.300;2023-10-09T11:05:12;11.88;;;6.35;;
41739;SDS011;27422;52.444;13.300;2023-10-09T11:10:22;8.82;;;5.88;;
41739;SDS011;27422;52.444;13.300;2023-10-09T11:12:56;8.25;;;5.75;;
41739;SDS011;27422;52.444;13.300;2023-10-09T11:18:38;10.35;;;5.80;;
41739;SDS011;27422;52.444;13.300;2023-10-09T11:21:07;9.60;;;5.65;;
41739;SDS011;27422;52.444;13.300;2023-10-09T11:23:33;8.85;;;5.78;;
41739;SDS011;27422;52.444;13.300;2023-10-09T11:25:59;10.00;;;6.13;;
41739;SDS011;27422;52.444;13.300;2023-10-09T11:28:43;8.07;;;5.72;;
41739;SDS011;27422;52.444;13.300;2023-10-09T11:31:21;10.45;;;6.65;;
41739;SDS011;27422;52.444;13.300;2023-10-09T11:33:48;12.93;;;6.80;;
41739;SDS011;27422;52.444;13.300;2023-10-09T11:36:16;8.43;;;6.05;;
41739;SDS011;27422;52.444;13.300;2023-10-09T11:39:00;8.82;;;5.68;;
41739;SDS011;27422;52.444;13.300;2023-10-09T11:41:39;8.90;;;6.30;;
41739;SDS011;27422;52.444;13.300;2023-10-09T11:44:09;9.90;;;6.40;;
41739;SDS011;27422;52.444;13.300;2023-10-09T11:46:56;8.88;;;5.28;;
41739;SDS011;27422;52.444;13.300;2023-10-09T11:49:23;7.47;;;4.70;;
41739;SDS011;27422;52.444;13.300;2023-10-09T11:52:08;8.93;;;5.25;;
41739;SDS011;27422;52.444;13.300;2023-10-09T11:54:34;9.32;;;4.90;;
41739;SDS011;27422;52.444;13.300;2023-10-09T11:57:03;6.47;;;4.53;;
41739;SDS011;27422;52.444;13.300;2023-10-09T11:59:29;7.50;;;4.30;;
41739;SDS011;27422;52.444;13.300;2023-10-09T12:02:04;8.55;;;4.53;;
41739;SDS011;27422;52.444;13.300;2023-10-09T12:04:29;8.45;;;4.35;;
41739;SDS011;27422;52.444;13.300;2023-10-09T12:06:58;9.70;;;5.35;;
41739;SDS011;27422;52.444;13.300;2023-10-09T12:09:34;7.97;;;4.90;;
41739;SDS011;27422;52.444;13.300;2023-10-09T12:12:03;7.00;;;4.88;;
41739;SDS011;27422;52.444;13.300;2023-10-09T12:14:30;7.65;;;5.10;;
41739;SDS011;27422;52.444;13.300;2023-10-09T12:17:04;9.13;;;5.32;;
41739;SDS011;27422;52.444;13.300;2023-10-09T12:19:33;7.95;;;5.30;;
41739;SDS011;27422;52.444;13.300;2023-10-09T12:22:00;8.00;;;5.25;;
41739;SDS011;27422;52.444;13.300;2023-10-09T12:24:27;7.38;;;5.00;;
41739;SDS011;27422;52.444;13.300;2023-10-09T12:26:57;7.63;;;5.47;;
41739;SDS011;27422;52.444;13.300;2023-10-09T12:29:23;8.85;;;4.90;;
41739;SDS011;27422;52.444;13.300;2023-10-09T12:31:49;7.78;;;5.30;;
41739;SDS011;27422;52.444;13.300;2023-10-09T12:34:23;6.75;;;5.10;;
41739;SDS011;27422;52.444;13.300;2023-10-09T12:36:52;7.80;;;5.20;;
41739;SDS011;27422;52.444;13.300;2023-10-09T12:39:18;9.05;;;5.50;;
41739;SDS011;27422;52.444;13.300;2023-10-09T12:41:44;8.07;;;5.20;;
41739;SDS011;27422;52.444;13.300;2023-10-09T12:44:10;7.70;;;5.60;;
41739;SDS011;27422;52.444;13.300;2023-10-09T12:46:47;10.30;;;5.47;;
41739;SDS011;27422;52.444;13.300;2023-10-09T12:49:19;8.57;;;5.75;;
41739;SDS011;27422;52.444;13.300;2023-10-09T12:51:53;9.18;;;5.72;;
41739;SDS011;27422;52.444;13.300;2023-10-09T12:54:19;11.85;;;6.10;;
41739;SDS011;27422;52.444;13.300;2023-10-09T12:56:45;8.60;;;5.97;;
41739;SDS011;27422;52.444;13.300;2023-10-09T12:59:13;8.70;;;5.97;;
41739;SDS011;27422;52.444;13.300;2023-10-09T13:01:39;8.18;;;5.80;;
41739;SDS011;27422;52.444;13.300;2023-10-09T13:04:11;9.18;;;6.30;;
41739;SDS011;27422;52.444;13.300;2023-10-09T13:06:40;7.85;;;5.93;;
41739;SDS011;27422;52.444;13.300;2023-10-09T13:09:16;9.85;;;6.90;;
41739;SDS011;27422;52.444;13.300;2023-10-09T13:11:49;8.70;;;6.78;;
41739;SDS011;27422;52.444;13.300;2023-10-09T13:14:15;9.50;;;7.35;;
41739;SDS011;27422;52.444;13.300;2023-10-09T13:16:47;8.20;;;6.80;;
41739;SDS011;27422;52.444;13.300;2023-10-09T13:19:15;11.05;;;7.78;;
41739;SDS011;27422;52.444;13.300;2023-10-09T13:21:42;11.20;;;7.38;;
41739;SDS011;27422;52.444;13.300;2023-10-09T13:24:08;9.63;;;7.82;;
41739;SDS011;27422;52.444;13.300;2023-10-09T13:26:49;10.57;;;7.75;;
41739;SDS011;27422;52.444;13.300;2023-10-09T13:31:47;12.20;;;7.82;;
41739;SDS011;27422;52.444;13.300;2023-10-09T13:34:14;9.25;;;7.90;;
41739;SDS011;27422;52.444;13.300;2023-10-09T13:36:43;9.80;;;7.72;;
41739;SDS011;27422;52.444;13.300;2023-10-09T13:39:24;9.38;;;7.13;;
41739;SDS011;27422;52.444;13.300;2023-10-09T13:41:51;11.35;;;7.20;;
41739;SDS011;27422;52.444;13.300;2023-10-09T13:44:26;10.90;;;7.90;;
41739;SDS011;27422;52.444;13.300;2023-10-09T13:46:55;9.68;;;7.25;;
41739;SDS011;27422;52.444;13.300;2023-10-09T13:49:47;9.05;;;6.43;;
41739;SDS011;27422;52.444;13.300;2023-10-09T13:52:18;11.15;;;6.90;;
41739;SDS011;27422;52.444;13.300;2023-10-09T13:54:43;10.30;;;6.57;;
41739;SDS011;27422;52.444;13.300;2023-10-09T13:57:13;10.95;;;7.47;;
41739;SDS011;27422;52.444;13.300;2023-10-09T13:59:40;13.30;;;7.63;;
41739;SDS011;27422;52.444;13.300;2023-10-09T14:02:14;11.10;;;7.85;;
41739;SDS011;27422;52.444;13.300;2023-10-09T14:04:42;10.52;;;7.95;;
41739;SDS011;27422;52.444;13.300;2023-10-09T14:07:08;12.50;;;9.25;;
41739;SDS011;27422;52.444;13.300;2023-10-09T14:09:34;12.20;;;8.93;;
41739;SDS011;27422;52.444;13.300;2023-10-09T14:12:04;10.23;;;8.55;;
41739;SDS011;27422;52.444;13.300;2023-10-09T14:14:42;12.52;;;8.52;;
41739;SDS011;27422;52.444;13.300;2023-10-09T14:17:18;10.90;;;8.15;;
41739;SDS011;27422;52.444;13.300;2023-10-09T14:19:48;13.60;;;8.50;;
41739;SDS011;27422;52.444;13.300;2023-10-09T14:22:19;13.05;;;8.30;;
41739;SDS011;27422;52.444;13.300;2023-10-09T14:24:46;12.18;;;8.38;;
41739;SDS011;27422;52.444;13.300;2023-10-09T14:27:13;10.70;;;8.07;;
41739;SDS011;27422;52.444;13.300;2023-10-09T14:29:45;12.20;;;8.05;;
41739;SDS011;27422;52.444;13.300;2023-10-09T14:32:11;10.82;;;7.65;;
41739;SDS011;27422;52.444;13.300;2023-10-09T14:34:39;10.90;;;7.38;;
41739;SDS011;27422;52.444;13.300;2023-10-09T14:37:12;10.73;;;8.27;;
41739;SDS011;27422;52.444;13.300;2023-10-09T14:39:40;10.90;;;7.78;;
41739;SDS011;27422;52.444;13.300;2023-10-09T14:42:06;13.60;;;7.45;;
41739;SDS011;27422;52.444;13.300;2023-10-09T14:44:37;11.43;;;8.15;;
41739;SDS011;27422;52.444;13.300;2023-10-09T14:47:04;10.55;;;8.20;;
41739;SDS011;27422;52.444;13.300;2023-10-09T14:49:31;10.98;;;8.07;;
41739;SDS011;27422;52.444;13.300;2023-10-09T14:52:16;10.45;;;7.60;;
41739;SDS011;27422;52.444;13.300;2023-10-09T14:54:43;12.52;;;8.75;;
41739;SDS011;27422;52.444;13.300;2023-10-09T14:57:12;12.35;;;8.18;;
41739;SDS011;27422;52.444;13.300;2023-10-09T14:59:39;12.55;;;8.18;;
41739;SDS011;27422;52.444;13.300;2023-10-09T15:02:05;9.82;;;7.38;;
41739;SDS011;27422;52.444;13.300;2023-10-09T15:04:32;9.68;;;7.82;;
41739;SDS011;27422;52.444;13.300;2023-10-09T15:07:00;9.43;;;7.10;;
41739;SDS011;27422;52.444;13.300;2023-10-09T15:09:26;9.50;;;7.53;;
41739;SDS011;27422;52.444;13.300;2023-10-09T15:11:58;10.07;;;8.05;;
41739;SDS011;27422;52.444;13.300;2023-10-09T15:14:26;10.60;;;7.78;;
41739;SDS011;27422;52.444;13.300;2023-10-09T15:16:51;12.43;;;9.25;;
41739;SDS011;27422;52.444;13.300;2023-10-09T15:19:17;12.15;;;8.55;;
41739;SDS011;27422;52.444;13.300;2023-10-09T15:21:42;11.57;;;8.30;;
41739;SDS011;27422;52.444;13.300;2023-10-09T15:24:11;12.80;;;8.23;;
41739;SDS011;27422;52.444;13.300;2023-10-09T15:26:41;11.55;;;8.60;;
41739;SDS011;27422;52.444;13.300;2023-10-09T15:29:07;11.52;;;8.25;;
41739;SDS011;27422;52.444;13.300;2023-10-09T15:31:34;11.48;;;7.85;;
41739;SDS011;27422;52.444;13.300;2023-10-09T15:34:00;10.45;;;8.20;;
41739;SDS011;27422;52.444;13.300;2023-10-09T15:36:27;12.82;;;8.35;;
41739;SDS011;27422;52.444;13.300;2023-10-09T15:38:57;15.77;;;9.25;;
41739;SDS011;27422;52.444;13.300;2023-10-09T15:41:29;12.73;;;8.65;;
41739;SDS011;27422;52.444;13.300;2023-10-09T15:43:57;10.50;;;8.35;;
41739;SDS011;27422;52.444;13.300;2023-10-09T15:46:23;14.68;;;8.70;;
41739;SDS011;27422;52.444;13.300;2023-10-09T15:48:50;11.40;;;8.80;;
41739;SDS011;27422;52.444;13.300;2023-10-09T15:53:43;11.43;;;7.97;;
41739;SDS011;27422;52.444;13.300;2023-10-09T15:56:13;9.82;;;7.93;;
41739;SDS011;27422;52.444;13.300;2023-10-09T15:58:41;12.18;;;8.65;;